GCLA/SPC METAR and TAF weather

Enter ICAO airport designator
Station Type Date Time Source
GCLA METAR 2019/12/07 10:00 UTC NOAA

GCLA 071000Z 03014KT 350V050 9999 FEW025 SCT050 21/14 Q1025


Station Type Date Time Source
GCLA Decoded METAR 2019/12/07 10:00 UTC NOAA

La Palma / Aeropuerto, Spain (GCLA) 28-37N 017-45W 31M
Dec 07, 2019 - 05:00 AM EST / 2019.12.07 1000 UTC
Wind: from the NNE (030 degrees) at 16 MPH (14 KT) (direction variable):0
Visibility: greater than 7 mile(s):0
Sky conditions: partly cloudy
Temperature: 69 F (21 C)
Dew Point: 57 F (14 C)
Relative Humidity: 64%
Pressure (altimeter): 30.27 in. Hg (1025 hPa)
ob: GCLA 071000Z 03014KT 350V050 9999 FEW025 SCT050 21/14 Q1025
cycle: 10

Station Type Date Time Source
GCLA TAF 2019/12/07 09:29 UTC NOAA

TAF GCLA 070800Z 0709/0809 02016KT 9999 BKN035 TX21/0714Z TN18/0805Z PROB30
TEMPO 0709/0711 RA

Example: see airport list